Latest Weather Observations for Port Macquarie Airport

IDN60801

Issued at 10:02 am EDT Saturday 10 December 2016 (issued every 30 minutes, with the page automatically refreshed every 10 minutes)

About weather observations | Map of weather stations | Latest weather observations for NSW | Other Formats
Station Details ID: 060139 Name: PORT MACQUARIE AIRPORT AWS Lat: -31.43 Lon: 152.87 Height: 4.2 m
Data from the previous 72 hours. | See also: Recent months at Port Macquarie Airport
Date/Time
EDT
Temp
°C
App
Temp
°C
Dew
Point
°C
Rel
Hum
%
Delta-T
°C
Wind Press
QNH
hPa
Press
MSL
hPa
Rain since
9am
mm
Dir  Spd
km/h
Gust
km/h
Spd
kts
Gust
kts
10/10:00am 21.8 21.0 13.9 61 4.6 SE 11 15 6 8 1022.6 1022.6 -
10/09:30am 21.8 20.5 13.7 60 4.7 SSE 13 20 7 11 1022.6 1022.6 0.0
10/09:00am 21.6 21.0 14.5 64 4.1 SSE 11 15 6 8 1022.5 1022.5 1.6
10/08:30am 20.2 20.7 15.6 75 2.7 SSW 7 9 4 5 1022.3 1022.3 1.6
10/08:00am 19.0 19.6 15.7 81 1.9 WSW 7 9 4 5 1022.2 1022.2 1.6
10/07:36am 18.5 19.0 15.6 83 1.7 WSW 7 11 4 6 1021.9 1021.9 1.6
10/07:30am 18.5 18.7 15.7 84 1.7 WSW 9 11 5 6 1021.8 1021.8 1.6
10/07:00am 16.5 17.1 15.7 95 0.5 W 7 9 4 5 1021.5 1021.5 1.6
10/06:57am 16.3 17.0 15.5 95 0.5 W 6 9 3 5 1021.4 1021.4 1.6
10/06:30am 15.3 15.5 14.7 96 0.3 WNW 7 9 4 5 1020.9 1020.9 1.6
10/06:00am 15.2 15.3 14.4 95 0.5 WNW 7 9 4 5 1020.6 1020.6 1.6
10/05:57am 15.3 15.3 14.3 94 0.6 WNW 7 9 4 5 1020.5 1020.5 1.6
10/05:41am 15.5 16.5 14.4 93 0.6 W 2 7 1 4 1020.2 1020.2 1.6
10/05:30am 15.8 17.3 14.7 93 0.6 CALM 0 0 0 0 1020.0 1020.0 1.6
10/05:00am 16.3 16.6 15.0 92 0.7 SW 7 9 4 5 1019.6 1019.6 1.6
10/04:30am 16.7 17.8 15.6 93 0.6 WSW 4 9 2 5 1019.3 1019.3 1.6
10/04:00am 16.7 17.2 15.6 93 0.6 W 7 9 4 5 1019.1 1019.1 1.6
10/03:30am 17.2 17.4 15.7 91 0.9 SSW 9 13 5 7 1018.8 1018.8 1.6
10/03:00am 16.8 17.6 15.8 94 0.6 W 6 7 3 4 1018.6 1018.6 1.4
10/02:41am 16.8 16.3 15.8 94 0.6 SSW 13 20 7 11 1018.6 1018.6 1.2
10/02:30am 16.5 15.9 15.7 95 0.5 SSW 13 20 7 11 1018.5 1018.5 0.6
10/02:00am 14.7 15.8 13.4 92 0.7 CALM 0 0 0 0 1018.5 1018.5 0.0
10/01:30am 15.1 16.4 14.0 93 0.6 CALM 0 0 0 0 1018.4 1018.4 0.0
10/01:00am 15.0 16.2 13.9 93 0.6 CALM 0 0 0 0 1018.4 1018.4 0.0
10/12:30am 14.7 15.8 13.4 92 0.7 CALM 0 0 0 0 1018.4 1018.4 0.0
10/12:00am 14.9 16.0 13.4 91 0.8 CALM 0 0 0 0 1018.2 1018.2 0.0
 
Date/Time
EDT
Temp
°C
App
Temp
°C
Dew
Point
°C
Rel
Hum
%
Delta-T
°C
Wind Press
QNH
hPa
Press
MSL
hPa
Rain since
9am
mm
Dir  Spd
km/h
Gust
km/h
Spd
kts
Gust
kts
09/11:30pm 15.1 16.2 13.6 91 0.8 CALM 0 0 0 0 1018.0 1018.0 0.0
09/11:00pm 15.3 16.5 13.8 91 0.8 CALM 0 0 0 0 1017.8 1017.8 0.0
09/10:30pm 15.3 16.4 13.5 89 1.0 CALM 0 0 0 0 1017.6 1017.6 0.0
09/10:00pm 16.1 16.2 13.9 87 1.2 W 6 7 3 4 1017.2 1017.2 0.0
09/09:30pm 16.6 16.5 13.9 84 1.5 WNW 7 7 4 4 1016.6 1016.6 0.0
09/09:00pm 17.4 17.4 13.7 79 2.1 WSW 6 7 3 4 1015.9 1015.9 0.0
09/08:30pm 18.4 17.9 13.7 74 2.7 S 9 11 5 6 1015.1 1015.1 0.0
09/08:00pm 19.4 18.2 12.7 65 3.8 SSW 11 15 6 8 1014.5 1014.5 0.0
09/07:30pm 20.7 18.7 11.6 56 5.0 S 13 17 7 9 1013.8 1013.8 0.0
09/07:00pm 21.8 19.5 10.6 49 6.1 S 13 20 7 11 1013.0 1013.0 0.0
09/06:30pm 22.4 19.3 11.5 50 6.1 S 19 30 10 16 1012.3 1012.3 0.0
09/06:00pm 22.9 19.4 11.0 47 6.6 S 20 30 11 16 1011.6 1011.6 0.0
09/05:30pm 23.2 18.4 10.3 44 7.1 SSE 26 37 14 20 1010.8 1010.8 0.0
09/05:00pm 24.0 18.9 10.7 43 7.4 S 28 37 15 20 1010.2 1010.2 0.0
09/04:30pm 24.1 18.8 10.0 41 7.7 S 28 41 15 22 1010.0 1010.0 0.0
09/04:00pm 24.4 19.3 10.7 42 7.6 SSE 28 41 15 22 1009.7 1009.7 0.0
09/03:30pm 24.3 19.3 10.9 43 7.5 SSE 28 35 15 19 1009.6 1009.6 0.0
09/03:00pm 25.0 20.3 10.8 41 7.9 SSE 26 35 14 19 1009.6 1009.6 0.0
09/02:30pm 24.8 19.8 9.5 38 8.4 SSE 26 39 14 21 1009.6 1009.6 0.0
09/02:00pm 24.7 20.6 11.3 43 7.6 SSE 24 33 13 18 1009.5 1009.5 0.0
09/01:30pm 24.8 20.3 11.4 43 7.6 SE 26 39 14 21 1009.3 1009.3 0.0
09/01:00pm 26.2 24.6 8.2 32 9.7 W 6 20 3 11 1009.1 1009.1 0.0
09/12:30pm 26.2 22.2 8.2 32 9.7 W 19 32 10 17 1009.2 1009.2 0.0
09/12:00pm 25.4 22.1 8.0 33 9.3 WSW 15 24 8 13 1009.4 1009.4 0.0
09/11:30am 24.6 20.5 7.7 34 8.9 W 19 30 10 16 1009.4 1009.4 0.0
09/11:00am 23.7 18.7 8.2 37 8.2 W 24 35 13 19 1009.1 1009.1 0.0
09/10:30am 22.8 18.9 7.0 36 8.2 W 17 24 9 13 1009.1 1009.1 0.0
09/10:00am 21.8 17.4 7.2 39 7.5 W 20 33 11 18 1008.9 1008.9 0.0
09/09:30am 22.3 15.3 6.1 35 8.2 W 32 46 17 25 1008.2 1008.2 0.0
09/09:00am 21.8 17.1 9.3 45 6.7 W 24 35 13 19 1007.7 1007.7 13.0
09/08:30am 21.8 23.3 16.7 73 3.1 SW 4 7 2 4 1007.4 1007.4 13.0
09/08:00am 21.5 21.9 17.3 77 2.6 SSE 11 17 6 9 1006.9 1006.9 13.0
09/07:30am 23.3 22.7 17.5 70 3.6 SW 17 26 9 14 1006.0 1006.0 13.0
09/07:00am 23.3 24.2 19.2 78 2.6 WSW 13 20 7 11 1005.0 1005.0 13.0
09/06:30am 21.1 23.9 19.6 91 1.0 SW 4 7 2 4 1004.2 1004.2 13.0
09/06:00am 21.5 23.9 19.6 89 1.2 SW 6 7 3 4 1003.5 1003.5 13.0
09/05:30am 21.8 23.9 20.1 90 1.1 NW 9 13 5 7 1002.7 1002.7 13.0
09/05:00am 21.4 24.0 20.4 94 0.6 NNW 7 9 4 5 1002.3 1002.3 13.0
09/04:30am 21.9 24.5 20.5 92 0.9 NNE 7 11 4 6 1001.9 1001.9 13.0
09/04:00am 21.8 25.8 20.6 93 0.8 CALM 0 0 0 0 1001.3 1001.3 13.0
09/03:30am 22.2 25.4 20.5 90 1.1 NE 4 6 2 3 1000.4 1000.4 13.0
09/03:00am 22.2 24.4 20.5 90 1.1 NNE 9 11 5 6 1001.1 1001.1 13.0
09/02:30am 21.9 24.5 20.5 92 0.9 NNW 7 9 4 5 1001.3 1001.3 12.8
09/02:00am 22.3 24.0 20.2 88 1.4 NW 11 13 6 7 1001.0 1001.0 12.8
09/01:30am 22.5 24.3 20.4 88 1.4 NNW 11 17 6 9 1000.8 1000.8 12.8
09/01:00am 21.7 23.9 20.5 93 0.8 NNW 9 13 5 7 1001.0 1001.0 12.6
09/12:30am 22.7 24.9 20.4 87 1.5 N 9 11 5 6 1001.3 1001.3 12.6
09/12:00am 22.8 24.1 20.1 85 1.7 NNW 13 19 7 10 1002.0 1002.0 12.6
 
Date/Time
EDT
Temp
°C
App
Temp
°C
Dew
Point
°C
Rel
Hum
%
Delta-T
°C
Wind Press
QNH
hPa
Press
MSL
hPa
Rain since
9am
mm
Dir  Spd
km/h
Gust
km/h
Spd
kts
Gust
kts
08/11:30pm 22.7 23.2 20.0 85 1.7 WNW 17 24 9 13 1002.5 1002.5 12.6
08/11:00pm 24.2 24.3 19.9 77 2.8 NW 19 32 10 17 1001.9 1001.9 10.8
08/10:30pm 23.5 22.2 20.6 84 1.9 NNW 28 46 15 25 1001.1 1001.1 10.8
08/10:20pm 23.7 21.5 20.8 84 1.9 NNE 33 52 18 28 999.9 999.9 10.8
08/10:00pm 23.2 23.6 20.9 87 1.5 NNE 20 32 11 17 1001.4 1001.4 10.8
08/09:30pm 23.3 24.0 21.2 88 1.4 NNE 19 24 10 13 1002.0 1002.0 10.8
08/09:00pm 22.7 25.3 21.2 91 1.0 N 9 13 5 7 1002.3 1002.3 10.8
08/08:30pm 22.9 24.0 21.2 90 1.1 N 17 22 9 12 1002.5 1002.5 10.8
08/08:00pm 23.0 25.3 21.3 90 1.1 N 11 17 6 9 1002.4 1002.4 10.8
08/07:30pm 23.4 24.5 21.3 88 1.4 N 17 20 9 11 1002.0 1002.0 10.8
08/07:00pm 24.2 25.6 21.9 87 1.5 N 17 24 9 13 1002.1 1002.1 10.8
08/06:30pm 23.5 23.8 21.6 89 1.3 NNE 22 32 12 17 1002.3 1002.3 10.8
08/06:00pm 23.4 25.5 21.7 90 1.1 NE 13 19 7 10 1002.8 1002.8 10.8
08/05:30pm 23.3 25.1 21.9 92 0.9 NE 15 20 8 11 1003.0 1003.0 10.8
08/05:00pm 23.1 23.9 21.7 92 0.9 NE 20 24 11 13 1003.2 1003.2 10.8
08/04:30pm 22.6 23.9 21.6 94 0.7 E 17 20 9 11 1003.9 1003.9 10.8
08/04:29pm 22.5 23.7 21.5 94 0.7 E 17 20 9 11 1003.9 1003.9 10.8
08/04:00pm 24.3 27.2 21.0 82 2.2 NW 7 19 4 10 1005.8 1005.8 1.6
08/03:30pm 24.7 23.5 20.8 79 2.6 NNE 28 41 15 22 1004.7 1004.7 0.0
08/03:00pm 25.9 24.9 20.5 72 3.5 NNE 26 35 14 19 1004.6 1004.6 0.0
08/02:30pm 26.1 25.8 21.1 74 3.3 NE 24 33 13 18 1004.9 1004.9 0.0
08/02:00pm 26.7 26.3 21.7 74 3.3 NE 26 35 14 19 1005.6 1005.6 0.0
08/01:30pm 26.3 25.0 20.6 71 3.7 NE 28 41 15 22 1005.8 1005.8 0.0
08/01:00pm 26.9 26.5 21.6 72 3.5 NE 26 37 14 20 1006.5 1006.5 0.0
08/12:30pm 26.0 24.7 20.6 72 3.5 NE 28 35 15 19 1007.3 1007.3 0.0
08/12:00pm 26.4 26.8 21.8 76 3.1 NE 22 35 12 19 1008.0 1008.0 0.0
08/11:30am 26.1 26.1 20.9 73 3.4 NNE 22 32 12 17 1008.6 1008.6 0.0
08/11:00am 25.2 25.2 20.9 77 2.8 NNE 22 32 12 17 1009.1 1009.1 0.0
08/10:30am 24.6 25.5 20.9 80 2.4 NE 17 24 9 13 1009.6 1009.6 0.0
08/10:18am 24.2 24.7 20.9 82 2.2 NNE 19 24 10 13 1009.8 1009.8 0.0
08/10:00am 23.5 24.0 20.0 81 2.3 NNE 17 26 9 14 1010.1 1010.1 0.0
08/09:30am 23.8 24.0 20.5 82 2.1 N 20 28 11 15 1010.5 1010.5 0.0
08/09:00am 22.8 22.6 19.8 83 1.9 N 20 26 11 14 1011.0 1011.0 0.0
08/08:30am 23.2 23.8 20.2 83 1.9 N 17 22 9 12 1011.4 1011.4 0.0
08/08:00am 21.7 22.8 19.6 88 1.3 N 13 19 7 10 1011.7 1011.7 0.0
08/07:59am 21.6 22.6 19.5 88 1.3 N 13 19 7 10 1011.7 1011.7 0.0
08/07:30am 21.2 22.1 19.3 89 1.2 N 13 15 7 8 1011.7 1011.7 0.0
08/07:00am 20.6 22.3 19.3 92 0.8 N 9 13 5 7 1011.9 1011.9 0.0
08/06:30am 20.2 21.7 19.0 93 0.8 N 9 13 5 7 1011.9 1011.9 0.0
08/06:00am 20.0 21.5 19.0 94 0.6 N 9 11 5 6 1011.9 1011.9 0.0
08/05:30am 19.8 20.9 18.8 94 0.6 N 11 13 6 7 1011.9 1011.9 0.0
08/05:00am 19.8 21.3 19.0 95 0.5 N 9 11 5 6 1011.9 1011.9 0.0
08/04:30am 19.7 21.6 18.9 95 0.5 NNE 7 9 4 5 1011.7 1011.7 0.0
08/04:00am 19.8 22.2 18.8 94 0.6 NNW 4 7 2 4 1011.9 1011.9 0.0
08/03:38am 19.8 21.6 18.8 94 0.6 NNW 7 9 4 5 1012.3 1012.3 0.0
08/03:30am 19.8 22.6 18.8 94 0.6 NW 2 7 1 4 1012.4 1012.4 0.0
08/03:00am 19.8 22.6 18.8 94 0.6 NW 2 7 1 4 1012.6 1012.6 0.0
08/02:39am 19.8 23.0 18.8 94 0.6 CALM 0 0 0 0 1012.9 1012.9 0.0
08/02:30am 19.7 22.8 18.7 94 0.6 CALM 0 0 0 0 1013.0 1013.0 0.0
08/02:00am 19.7 21.6 18.9 95 0.5 NW 7 7 4 4 1013.8 1013.8 0.0
08/01:30am 19.7 22.1 18.9 95 0.5 NW 4 7 2 4 1014.0 1014.0 0.0
08/01:00am 19.7 22.9 18.9 95 0.5 CALM 0 0 0 0 1014.4 1014.4 0.0
08/12:30am 19.6 22.7 18.6 94 0.6 CALM 0 0 0 0 1014.8 1014.8 0.0
08/12:00am 19.6 22.7 18.6 94 0.6 CALM 0 2 0 1 1015.2 1015.2 0.0
 
Date/Time
EDT
Temp
°C
App
Temp
°C
Dew
Point
°C
Rel
Hum
%
Delta-T
°C
Wind Press
QNH
hPa
Press
MSL
hPa
Rain since
9am
mm
Dir  Spd
km/h
Gust
km/h
Spd
kts
Gust
kts
07/11:30pm 19.7 21.8 18.9 95 0.5 NW 6 7 3 4 1015.5 1015.5 0.0
07/11:00pm 19.9 22.3 18.9 94 0.6 WNW 4 7 2 4 1015.7 1015.7 0.0
07/10:30pm 20.0 22.2 19.2 95 0.5 WNW 6 7 3 4 1016.0 1016.0 0.0
07/10:00pm 20.0 22.1 19.0 94 0.6 W 6 9 3 5 1016.1 1016.1 0.0
07/09:30pm 20.1 22.1 19.1 94 0.6 NW 7 9 4 5 1015.9 1015.9 0.0
07/09:00pm 20.2 22.3 19.0 93 0.8 NW 6 7 3 4 1015.9 1015.9 0.0
07/08:30pm 20.4 22.4 19.1 92 0.8 WSW 7 9 4 5 1016.0 1016.0 0.0
07/08:00pm 20.4 22.6 19.1 92 0.8 SW 6 7 3 4 1015.6 1015.6 0.0
07/07:30pm 20.5 22.0 18.8 90 1.1 SW 9 13 5 7 1015.6 1015.6 0.0
07/07:00pm 21.1 22.3 18.3 84 1.7 SE 9 17 5 9 1015.4 1015.4 0.0
07/06:30pm 21.4 22.6 18.2 82 2.0 SE 9 13 5 7 1015.1 1015.1 0.0
07/06:00pm 21.6 22.2 18.6 83 1.9 SE 13 19 7 10 1014.6 1014.6 0.0
07/05:30pm 22.2 22.0 18.4 79 2.4 SSE 17 22 9 12 1014.4 1014.4 0.0
07/05:00pm 22.5 21.7 18.1 76 2.7 SSE 19 26 10 14 1014.4 1014.4 0.0
07/04:30pm 22.8 22.5 18.3 76 2.8 S 17 28 9 15 1014.3 1014.3 0.0
07/04:00pm 23.2 22.6 18.5 75 3.0 S 19 26 10 14 1014.5 1014.5 0.0
07/03:30pm 22.5 21.6 18.1 76 2.7 SSW 20 28 11 15 1014.7 1014.7 0.0
07/03:00pm 22.8 21.9 18.1 75 2.9 SSW 20 28 11 15 1014.6 1014.6 0.0
07/02:30pm 23.1 22.7 18.0 73 3.2 SSW 17 28 9 15 1014.4 1014.4 0.0
07/02:00pm 21.9 21.4 16.8 73 3.1 SSW 15 20 8 11 1014.4 1014.4 0.0
07/01:30pm 21.5 20.0 16.2 72 3.2 SSW 19 26 10 14 1014.8 1014.8 0.0
07/01:00pm 22.6 21.0 17.5 73 3.2 S 22 32 12 17 1014.7 1014.7 0.0
07/12:30pm 21.8 20.9 17.8 78 2.5 S 19 26 10 14 1014.8 1014.8 0.0
07/12:00pm 23.1 22.2 18.2 74 3.1 SSW 20 32 11 17 1014.7 1014.7 0.0
07/11:30am 22.5 21.3 17.4 73 3.1 SSW 20 26 11 14 1014.7 1014.7 0.0
07/11:00am 22.7 22.5 18.5 77 2.6 SSW 17 22 9 12 1014.6 1014.6 0.0
07/10:30am 21.9 21.7 18.5 81 2.1 SW 17 20 9 11 1014.7 1014.7 0.0

Other Formats:

Comma delimited format used in spreadsheet applications
http://www.bom.gov.au/fwo/IDN60801/IDN60801.94786.axf

JavaScript Object Notation format (JSON) in row-major order
http://www.bom.gov.au/fwo/IDN60801/IDN60801.94786.json